Time;durP1;ratioP1;P1;durP2;ratioP2;P2;SDS_P1;SDS_P2;PMS_P1;PMS_P2;Temp;Humidity;BMP_temperature;BMP_pressure;BME280_temperature;BME280_humidity;BME280_pressure;Samples;Min_cycle;Max_cycle;Signal;HPM_P1;HPM_P2
2022/03/22 00:00:50;;;;;;;44.63;24.58;;;2.30;99.90;;;;;;5075123;28;20020;-69
2022/03/22 00:03:16;;;;;;;43.35;24.92;;;2.30;99.90;;;;;;5075065;28;20484;-69
2022/03/22 00:05:44;;;;;;;41.38;23.85;;;2.30;99.90;;;;;;5075011;28;20143;-69
2022/03/22 00:08:10;;;;;;;43.10;22.92;;;2.20;99.90;;;;;;5075146;28;20468;-69
2022/03/22 00:10:37;;;;;;;43.47;22.73;;;2.20;99.90;;;;;;5074889;28;20423;-69
2022/03/22 00:13:05;;;;;;;45.80;21.83;;;2.20;99.90;;;;;;5074826;28;20017;-69
2022/03/22 00:15:32;;;;;;;45.30;23.42;;;2.10;99.90;;;;;;5074882;28;20017;-69
2022/03/22 00:17:58;;;;;;;41.13;24.50;;;2.10;99.90;;;;;;5074809;28;20032;-69
2022/03/22 00:20:23;;;;;;;46.83;24.73;;;2.00;99.90;;;;;;5074755;28;20028;-69
2022/03/22 00:22:49;;;;;;;44.00;24.67;;;2.00;99.90;;;;;;5075214;28;20100;-69
2022/03/22 00:25:18;;;;;;;43.50;23.38;;;2.00;99.90;;;;;;5074719;28;20108;-69
2022/03/22 00:27:54;;;;;;;47.45;25.48;;;2.00;99.90;;;;;;5074965;28;20028;-69
2022/03/22 00:30:27;;;;;;;48.40;23.50;;;1.90;99.90;;;;;;5073278;28;20028;-69
2022/03/22 00:32:55;;;;;;;45.28;24.88;;;1.90;99.90;;;;;;5074405;28;20040;-69
2022/03/22 00:35:25;;;;;;;39.15;23.35;;;1.80;99.90;;;;;;5074562;28;20456;-69
2022/03/22 00:37:53;;;;;;;43.58;23.60;;;1.70;99.90;;;;;;5074553;28;20035;-69
2022/03/22 00:40:21;;;;;;;48.97;24.17;;;1.70;99.90;;;;;;5074523;28;20021;-69
2022/03/22 00:42:47;;;;;;;40.13;23.63;;;1.60;99.90;;;;;;5072961;28;20028;-69
2022/03/22 00:45:17;;;;;;;50.75;26.50;;;1.50;99.90;;;;;;5074289;28;20032;-69
2022/03/22 00:47:47;;;;;;;43.47;24.25;;;1.40;99.90;;;;;;5074464;28;20032;-69
2022/03/22 00:50:14;;;;;;;48.40;24.27;;;1.40;99.90;;;;;;5075137;28;20027;-69
2022/03/22 00:52:40;;;;;;;44.20;23.52;;;1.30;99.90;;;;;;5074679;28;20029;-69
2022/03/22 00:55:07;;;;;;;43.72;24.00;;;1.30;99.90;;;;;;5074118;28;20476;-69
2022/03/22 00:57:34;;;;;;;44.97;23.67;;;1.20;99.90;;;;;;5074373;28;20027;-69
2022/03/22 01:00:07;;;;;;;45.65;24.17;;;1.20;99.90;;;;;;5074077;28;20048;-69
2022/03/22 01:02:37;;;;;;;43.80;24.13;;;1.10;99.90;;;;;;5074201;28;20476;-69
2022/03/22 01:05:06;;;;;;;43.60;25.08;;;1.10;99.90;;;;;;5073914;28;20262;-69
2022/03/22 01:07:33;;;;;;;51.28;25.63;;;1.10;99.90;;;;;;5073858;28;20025;-69
2022/03/22 01:10:00;;;;;;;46.83;25.15;;;1.00;99.90;;;;;;5073759;28;20027;-68
2022/03/22 01:12:26;;;;;;;46.28;25.38;;;1.00;99.90;;;;;;5074097;28;20383;-69
2022/03/22 01:14:52;;;;;;;43.60;23.77;;;1.00;99.90;;;;;;5074077;28;20046;-69
2022/03/22 01:17:18;;;;;;;46.67;24.67;;;1.00;99.90;;;;;;5072484;28;20109;-69
2022/03/22 01:19:46;;;;;;;48.13;24.88;;;0.90;99.90;;;;;;5074109;28;20106;-69
2022/03/22 01:22:11;;;;;;;44.20;25.02;;;0.90;99.90;;;;;;5073646;28;20090;-69
2022/03/22 01:24:37;;;;;;;46.78;25.40;;;0.90;99.90;;;;;;5073651;28;20424;-69
2022/03/22 01:27:03;;;;;;;42.63;24.23;;;0.90;99.90;;;;;;5073840;28;20369;-69
2022/03/22 01:29:28;;;;;;;40.88;24.27;;;0.90;99.90;;;;;;5073614;28;20028;-69
2022/03/22 01:31:55;;;;;;;43.78;24.73;;;0.90;99.90;;;;;;5073625;28;20063;-69
2022/03/22 01:34:21;;;;;;;45.58;26.52;;;0.80;99.90;;;;;;5074103;28;20354;-69
2022/03/22 01:36:46;;;;;;;47.47;25.05;;;0.90;99.90;;;;;;5072944;28;20025;-69
2022/03/22 01:39:12;;;;;;;42.03;23.80;;;0.90;99.90;;;;;;5073592;28;20083;-69
2022/03/22 01:41:37;;;;;;;44.65;24.73;;;0.90;99.90;;;;;;5073423;28;20028;-69
2022/03/22 01:44:03;;;;;;;45.60;25.77;;;0.90;99.90;;;;;;5074049;28;20077;-69
2022/03/22 01:46:29;;;;;;;45.78;24.73;;;0.80;99.90;;;;;;5073554;28;20229;-69
2022/03/22 01:48:55;;;;;;;42.88;25.30;;;0.90;99.90;;;;;;5072089;28;20052;-69
2022/03/22 01:51:22;;;;;;;45.85;24.45;;;0.90;99.90;;;;;;5073741;28;20023;-69
2022/03/22 01:53:48;;;;;;;47.80;25.48;;;0.90;99.90;;;;;;5073374;28;20103;-69
2022/03/22 01:56:14;;;;;;;42.03;23.35;;;0.90;99.90;;;;;;5073604;28;20203;-69
2022/03/22 01:58:40;;;;;;;40.35;23.95;;;0.90;99.90;;;;;;5073339;28;20499;-69
2022/03/22 02:06:35;;;;;;;;;;;0.80;99.90;;;;;;5074021;28;20031;-69
2022/03/22 02:09:01;;;;;;;39.90;23.00;;;0.70;99.90;;;;;;5073185;28;19958;-68
2022/03/22 02:11:26;;;;;;;43.03;23.42;;;0.70;99.90;;;;;;5073181;28;20025;-69
2022/03/22 02:13:52;;;;;;;46.65;23.23;;;0.70;99.90;;;;;;5073087;28;20016;-69
2022/03/22 02:16:18;;;;;;;45.30;22.20;;;0.70;99.90;;;;;;5073178;28;20125;-69
2022/03/22 02:18:44;;;;;;;41.80;23.42;;;0.70;99.90;;;;;;5073134;28;20468;-68
2022/03/22 02:21:14;;;;;;;47.55;25.15;;;0.70;99.90;;;;;;5073212;28;20024;-69
2022/03/22 02:23:55;;;;;;;52.45;27.48;;;0.70;99.90;;;;;;5073301;28;20075;-69
2022/03/22 02:26:22;;;;;;;46.38;24.55;;;0.70;99.90;;;;;;5073125;28;20035;-69
2022/03/22 02:28:53;;;;;;;46.00;24.83;;;0.70;99.90;;;;;;5072964;28;20127;-70
2022/03/22 02:31:22;;;;;;;43.00;23.80;;;0.60;99.90;;;;;;5073411;28;20028;-70
2022/03/22 02:33:48;;;;;;;52.17;24.88;;;0.60;99.90;;;;;;5072825;28;20094;-68
2022/03/22 02:36:14;;;;;;;47.28;26.35;;;0.60;99.90;;;;;;5073019;28;20476;-69
2022/03/22 02:38:40;;;;;;;48.80;25.73;;;0.60;99.90;;;;;;5072990;28;20024;-69
2022/03/22 02:41:05;;;;;;;47.42;25.83;;;0.70;99.90;;;;;;5073127;28;20082;-69
2022/03/22 02:43:32;;;;;;;42.50;24.67;;;0.70;99.90;;;;;;5073382;28;20071;-69
2022/03/22 02:45:58;;;;;;;41.10;23.55;;;0.70;99.90;;;;;;5072869;28;20036;-69
2022/03/22 02:48:24;;;;;;;49.05;23.50;;;0.70;99.90;;;;;;5074449;28;20025;-69
2022/03/22 02:50:51;;;;;;;41.55;23.85;;;0.70;99.90;;;;;;5076529;28;20480;-69
2022/03/22 02:53:16;;;;;;;50.45;25.00;;;0.60;99.90;;;;;;5076435;28;20384;-69
2022/03/22 02:55:42;;;;;;;40.80;24.33;;;0.70;99.90;;;;;;5076397;28;20046;-69
2022/03/22 02:58:08;;;;;;;40.67;22.58;;;0.70;99.90;;;;;;5076388;28;20020;-69
2022/03/22 03:00:35;;;;;;;44.47;25.63;;;0.70;99.90;;;;;;5075015;28;20041;-69
2022/03/22 03:03:00;;;;;;;46.25;25.25;;;0.60;99.90;;;;;;5076256;28;20031;-69
2022/03/22 03:05:26;;;;;;;42.03;24.13;;;0.60;99.90;;;;;;5076241;28;20029;-69
2022/03/22 03:07:52;;;;;;;46.05;24.73;;;0.60;99.90;;;;;;5076535;28;20021;-69
2022/03/22 03:10:18;;;;;;;47.42;23.40;;;0.60;99.90;;;;;;5076389;28;20038;-69
2022/03/22 03:12:44;;;;;;;42.65;23.38;;;0.60;99.90;;;;;;5076934;28;20025;-69
2022/03/22 03:15:11;;;;;;;42.28;22.67;;;0.60;99.90;;;;;;5076901;28;20361;-69
2022/03/22 03:17:37;;;;;;;40.22;23.52;;;0.50;99.90;;;;;;5076113;28;20426;-69
2022/03/22 03:20:04;;;;;;;50.13;25.83;;;0.50;99.90;;;;;;5076009;28;20042;-69
2022/03/22 03:22:30;;;;;;;38.85;23.92;;;0.50;99.90;;;;;;5075938;28;20021;-69
2022/03/22 03:24:56;;;;;;;47.60;24.50;;;0.50;99.90;;;;;;5075931;28;20361;-69
2022/03/22 03:27:22;;;;;;;40.80;24.05;;;0.60;99.90;;;;;;5075890;28;20023;-69
2022/03/22 03:29:48;;;;;;;41.67;23.10;;;0.50;99.90;;;;;;5075748;28;20028;-69
2022/03/22 03:32:14;;;;;;;43.58;24.38;;;0.40;99.90;;;;;;5096650;23;20393;-69
2022/03/22 03:34:39;;;;;;;42.20;23.58;;;0.40;99.90;;;;;;5075946;28;20045;-68
2022/03/22 03:37:06;;;;;;;46.22;25.38;;;0.40;99.90;;;;;;5075615;28;20028;-68
2022/03/22 03:39:32;;;;;;;49.85;25.80;;;0.40;99.90;;;;;;5075544;28;20039;-68
2022/03/22 03:41:58;;;;;;;54.55;26.08;;;0.60;99.90;;;;;;5075531;28;20419;-68
2022/03/22 03:47:22;;;;;;;44.03;23.55;;;0.60;99.90;;;;;;5075761;28;20384;-71
2022/03/22 03:49:49;;;;;;;41.85;23.63;;;0.60;99.90;;;;;;5075284;28;20099;-72
2022/03/22 03:52:26;;;;;;;37.30;22.17;;;0.50;99.90;;;;;;5075239;28;20031;-72
2022/03/22 03:54:53;;;;;;;41.60;22.67;;;0.50;99.90;;;;;;5075288;28;20013;-71
2022/03/22 03:57:19;;;;;;;40.65;23.92;;;0.40;99.90;;;;;;5075397;28;20100;-68
2022/03/22 03:59:45;;;;;;;40.15;21.88;;;0.30;99.90;;;;;;5074503;28;20499;-68
2022/03/22 04:02:12;;;;;;;40.35;22.95;;;0.30;99.90;;;;;;5075046;28;20049;-69
2022/03/22 04:04:38;;;;;;;35.05;21.33;;;0.20;99.90;;;;;;5075025;28;20039;-68
2022/03/22 04:07:06;;;;;;;41.90;22.40;;;0.20;99.90;;;;;;5075017;28;20024;-68
2022/03/22 04:09:33;;;;;;;37.88;21.95;;;0.10;99.90;;;;;;5075115;28;20472;-68
2022/03/22 04:11:59;;;;;;;36.85;22.48;;;0.10;99.90;;;;;;5074900;28;20410;-68
2022/03/22 04:14:24;;;;;;;41.85;22.40;;;0.10;99.90;;;;;;5074782;28;20116;-71
2022/03/22 04:16:50;;;;;;;39.63;22.85;;;0.10;99.90;;;;;;5075096;28;20025;-70
2022/03/22 04:19:16;;;;;;;45.53;24.00;;;0.10;99.90;;;;;;5074772;28;20033;-69
2022/03/22 04:21:42;;;;;;;43.58;23.63;;;0.10;99.90;;;;;;5075006;28;20024;-68
2022/03/22 04:24:10;;;;;;;46.00;23.42;;;0.10;99.90;;;;;;5074563;28;20017;-68
2022/03/22 04:26:38;;;;;;;43.70;23.98;;;0.10;99.90;;;;;;5074597;28;20021;-68
2022/03/22 04:34:34;;;;;;;37.30;23.30;;;0.10;99.90;;;;;;5074941;28;20537;-68
2022/03/22 04:37:01;;;;;;;46.47;24.70;;;0.10;99.90;;;;;;5074944;28;20025;-68
2022/03/22 04:39:30;;;;;;;39.80;22.67;;;0.10;99.90;;;;;;5074336;28;20024;-70
2022/03/22 04:41:57;;;;;;;43.80;23.98;;;0.10;99.90;;;;;;5074830;28;20081;-70
2022/03/22 04:44:27;;;;;;;45.42;25.75;;;0.10;99.90;;;;;;5074191;28;20071;-68
2022/03/22 04:46:53;;;;;;;52.35;25.90;;;0.10;99.90;;;;;;5074220;28;20036;-70
2022/03/22 04:49:19;;;;;;;58.20;28.40;;;0.20;99.90;;;;;;5074318;28;20085;-70
2022/03/22 04:57:13;;;;;;;;;;;0.20;99.90;;;;;;5074778;28;20027;-71
2022/03/22 04:59:38;;;;;;;41.35;21.60;;;0.10;99.90;;;;;;5073984;28;20280;-68
2022/03/22 05:02:04;;;;;;;39.00;21.20;;;0.00;99.90;;;;;;5073830;28;20040;-68
2022/03/22 05:04:30;;;;;;;39.20;21.88;;;0.00;99.90;;;;;;5073873;28;20029;-70
2022/03/22 05:06:55;;;;;;;49.55;23.02;;;-0.10;99.90;;;;;;5073848;28;20472;-70
2022/03/22 05:09:22;;;;;;;36.70;22.17;;;-0.10;99.90;;;;;;5073741;28;20043;-68
2022/03/22 05:11:48;;;;;;;46.05;24.10;;;-0.10;99.90;;;;;;5072914;28;20094;-68
2022/03/22 05:14:14;;;;;;;43.38;23.65;;;-0.10;99.90;;;;;;5073746;28;20492;-68
2022/03/22 05:16:39;;;;;;;36.55;20.92;;;-0.10;99.90;;;;;;5073966;28;20031;-68
2022/03/22 05:19:05;;;;;;;46.63;22.75;;;-0.10;99.90;;;;;;5073689;28;20491;-69
2022/03/22 05:21:31;;;;;;;38.55;23.10;;;-0.10;99.90;;;;;;5073907;28;20029;-69
2022/03/22 05:23:57;;;;;;;39.38;23.00;;;-0.10;99.90;;;;;;5073804;28;20047;-68
2022/03/22 05:26:25;;;;;;;41.00;23.48;;;0.00;99.90;;;;;;5073888;28;20020;-68
2022/03/22 05:28:51;;;;;;;42.92;23.20;;;0.00;99.90;;;;;;5073522;28;20033;-68
2022/03/22 05:31:17;;;;;;;40.10;23.13;;;0.00;99.90;;;;;;5073509;28;20020;-68
2022/03/22 05:33:42;;;;;;;42.72;23.75;;;-0.10;99.90;;;;;;5073378;28;20044;-71
2022/03/22 05:36:09;;;;;;;44.83;23.90;;;0.00;99.90;;;;;;5073641;28;20477;-69
2022/03/22 05:38:35;;;;;;;39.60;22.25;;;0.00;99.90;;;;;;5073730;28;20099;-71
2022/03/22 05:41:04;;;;;;;43.78;24.20;;;0.00;99.90;;;;;;5073439;28;20105;-71
2022/03/22 05:43:31;;;;;;;45.05;23.00;;;0.00;99.90;;;;;;5073326;28;20025;-71
2022/03/22 05:45:56;;;;;;;44.63;23.13;;;0.00;99.90;;;;;;5073381;28;20032;-68
2022/03/22 05:48:23;;;;;;;42.92;22.45;;;0.10;99.90;;;;;;5073375;28;20025;-68
2022/03/22 05:50:49;;;;;;;42.88;23.58;;;0.10;99.90;;;;;;5073337;28;20101;-72
2022/03/22 05:53:15;;;;;;;43.67;22.65;;;0.10;99.90;;;;;;5073254;28;20102;-71
2022/03/22 05:55:41;;;;;;;45.40;24.27;;;0.10;99.90;;;;;;5073348;28;20488;-71
2022/03/22 05:58:08;;;;;;;38.97;22.65;;;0.20;99.90;;;;;;5073404;28;20027;-71
2022/03/22 06:00:33;;;;;;;38.35;22.58;;;0.20;99.90;;;;;;5073313;28;20056;-68
2022/03/22 06:02:59;;;;;;;44.70;22.98;;;0.20;99.90;;;;;;5073466;28;20029;-68
2022/03/22 06:05:25;;;;;;;50.05;26.02;;;0.20;99.90;;;;;;5073480;28;20032;-68
2022/03/22 06:07:51;;;;;;;45.33;23.88;;;0.30;99.90;;;;;;5073195;28;20532;-68
2022/03/22 06:10:17;;;;;;;42.28;24.25;;;0.40;99.90;;;;;;5073457;28;20072;-70
2022/03/22 06:12:48;;;;;;;45.03;24.08;;;0.50;99.90;;;;;;5073263;28;20025;-70
2022/03/22 06:15:22;;;;;;;45.40;24.15;;;0.50;99.90;;;;;;5073104;28;20025;-70
2022/03/22 06:18:03;;;;;;;44.03;23.65;;;0.60;99.90;;;;;;5073374;28;20033;-68
2022/03/22 06:20:33;;;;;;;41.45;23.45;;;0.70;99.90;;;;;;5073419;28;20028;-68
2022/03/22 06:23:05;;;;;;;40.05;21.92;;;0.80;99.90;;;;;;5074049;28;20102;-68
2022/03/22 06:25:31;;;;;;;47.28;24.85;;;0.90;99.90;;;;;;5077257;28;20028;-68
2022/03/22 06:27:57;;;;;;;41.58;24.58;;;1.00;99.90;;;;;;5077161;28;20476;-68
2022/03/22 06:30:24;;;;;;;43.85;23.38;;;1.10;99.90;;;;;;5077072;28;20031;-68
2022/03/22 06:32:54;;;;;;;45.08;22.60;;;1.20;99.90;;;;;;5076629;28;20468;-70
2022/03/22 06:35:31;;;;;;;38.33;23.75;;;1.30;99.90;;;;;;5077057;28;20027;-68
2022/03/22 06:37:59;;;;;;;43.97;24.75;;;1.40;99.90;;;;;;5077005;28;20041;-68
2022/03/22 06:40:29;;;;;;;50.38;24.58;;;1.60;99.90;;;;;;5076696;28;20028;-70
2022/03/22 06:42:56;;;;;;;42.08;24.27;;;1.70;99.90;;;;;;5076550;28;20086;-71
2022/03/22 06:45:22;;;;;;;42.85;23.35;;;1.90;99.90;;;;;;5077146;28;20024;-71
2022/03/22 06:47:48;;;;;;;41.75;25.50;;;2.00;99.90;;;;;;5076841;28;20030;-71
2022/03/22 06:50:16;;;;;;;49.38;26.15;;;2.20;99.90;;;;;;5076672;28;20020;-68
2022/03/22 06:52:42;;;;;;;46.90;25.63;;;2.30;99.90;;;;;;5076664;28;20048;-68
2022/03/22 06:55:08;;;;;;;40.15;23.85;;;2.50;99.90;;;;;;5076685;28;20020;-68
2022/03/22 06:57:35;;;;;;;43.20;23.70;;;2.60;99.90;;;;;;5076646;28;20024;-68
2022/03/22 07:00:04;;;;;;;41.42;23.17;;;2.80;99.90;;;;;;5076345;28;20025;-68
2022/03/22 07:02:31;;;;;;;40.75;23.88;;;2.90;99.90;;;;;;5076169;28;20043;-68
2022/03/22 07:04:56;;;;;;;43.90;24.52;;;3.10;99.90;;;;;;5076489;28;20027;-68
2022/03/22 07:07:22;;;;;;;39.47;24.20;;;3.30;99.90;;;;;;5074899;28;20119;-70
2022/03/22 07:09:48;;;;;;;37.38;22.52;;;3.40;99.90;;;;;;5076061;28;20033;-71
2022/03/22 07:12:14;;;;;;;38.20;23.13;;;3.60;99.90;;;;;;5076046;28;20021;-68
2022/03/22 07:14:42;;;;;;;41.58;22.55;;;3.80;99.90;;;;;;5076069;28;20115;-68
2022/03/22 07:17:08;;;;;;;43.97;24.55;;;4.00;99.90;;;;;;5075996;28;20501;-68
2022/03/22 07:19:34;;;;;;;39.45;23.70;;;4.30;99.90;;;;;;5075995;28;20094;-68
2022/03/22 07:22:01;;;;;;;37.75;23.00;;;4.40;99.90;;;;;;5075994;28;20491;-71
2022/03/22 07:24:27;;;;;;;35.33;23.42;;;4.70;99.90;;;;;;5075863;28;20033;-71
2022/03/22 07:26:53;;;;;;;38.75;24.20;;;4.90;99.90;;;;;;5076141;28;20078;-68
2022/03/22 07:29:18;;;;;;;35.70;22.73;;;5.10;99.90;;;;;;5075709;28;20060;-68
2022/03/22 07:31:44;;;;;;;39.03;23.15;;;5.30;99.90;;;;;;5075774;28;20021;-68
2022/03/22 07:34:15;;;;;;;41.13;23.42;;;5.50;99.90;;;;;;5076027;28;20472;-68
2022/03/22 07:36:44;;;;;;;44.90;22.90;;;5.70;99.90;;;;;;5075540;28;20392;-72
2022/03/22 07:39:11;;;;;;;34.85;20.90;;;6.00;99.90;;;;;;5075628;28;20085;-72
2022/03/22 07:41:37;;;;;;;39.25;23.65;;;6.20;99.90;;;;;;5075844;28;20030;-72
2022/03/22 07:44:07;;;;;;;39.63;22.30;;;6.40;99.90;;;;;;5075771;28;20028;-74
2022/03/22 07:46:33;;;;;;;37.45;23.13;;;6.60;99.90;;;;;;5075861;28;20032;-69
2022/03/22 07:54:27;;;;;;;40.63;22.42;;;7.20;99.90;;;;;;5075869;28;20371;-72
2022/03/22 07:56:53;;;;;;;40.70;22.10;;;7.40;99.90;;;;;;5075490;28;20024;-72
2022/03/22 07:59:19;;;;;;;34.58;20.17;;;7.50;99.90;;;;;;5075236;28;20032;-72
2022/03/22 08:01:44;;;;;;;44.17;21.70;;;7.70;99.90;;;;;;5075466;28;20035;-72
2022/03/22 08:04:10;;;;;;;37.30;20.15;;;8.00;99.90;;;;;;5075081;28;20043;-69
2022/03/22 08:06:35;;;;;;;40.97;21.23;;;8.20;99.90;;;;;;5075099;28;20032;-71
2022/03/22 08:09:01;;;;;;;37.55;21.85;;;8.40;99.90;;;;;;5075016;28;20028;-70
2022/03/22 08:11:26;;;;;;;42.20;22.25;;;8.60;99.90;;;;;;5075190;28;20023;-68
2022/03/22 08:13:52;;;;;;;37.30;21.70;;;8.70;99.90;;;;;;5074990;28;20016;-68
2022/03/22 08:16:18;;;;;;;34.47;20.92;;;9.00;99.90;;;;;;5075440;28;20024;-68
2022/03/22 08:18:44;;;;;;;39.47;20.38;;;9.00;99.90;;;;;;5074835;28;20031;-68
2022/03/22 08:21:10;;;;;;;34.47;19.98;;;9.10;99.90;;;;;;5074868;28;20012;-71
2022/03/22 08:23:35;;;;;;;37.20;21.25;;;9.20;99.90;;;;;;5074724;28;20100;-71
2022/03/22 08:26:01;;;;;;;35.78;20.50;;;9.40;99.90;;;;;;5074697;28;20030;-68
2022/03/22 08:28:26;;;;;;;35.92;20.35;;;9.40;99.90;;;;;;5074690;28;20020;-68
2022/03/22 08:30:52;;;;;;;31.33;19.60;;;9.60;99.90;;;;;;5074471;28;20025;-69
2022/03/22 08:33:18;;;;;;;34.88;21.38;;;9.90;99.90;;;;;;5074415;28;20032;-69
2022/03/22 08:35:46;;;;;;;38.35;20.55;;;10.00;99.90;;;;;;5074454;28;20469;-69
2022/03/22 08:38:14;;;;;;;36.80;20.58;;;10.30;99.90;;;;;;5074434;28;20387;-69
2022/03/22 08:40:39;;;;;;;38.50;18.67;;;10.50;99.90;;;;;;5074420;28;20153;-69
2022/03/22 08:43:08;;;;;;;42.83;20.63;;;10.70;99.90;;;;;;5074250;28;20063;-69
2022/03/22 08:45:35;;;;;;;33.13;19.67;;;11.00;99.90;;;;;;5074058;28;20024;-69
2022/03/22 08:48:02;;;;;;;41.45;20.95;;;11.10;99.90;;;;;;5074235;28;20028;-69
2022/03/22 08:50:28;;;;;;;46.42;19.95;;;11.20;99.90;;;;;;5074121;28;20021;-69
2022/03/22 08:52:56;;;;;;;34.45;20.63;;;11.30;99.90;;;;;;5074120;28;20088;-69
2022/03/22 08:55:23;;;;;;;37.15;20.60;;;11.60;99.90;;;;;;5074472;28;20086;-69
2022/03/22 08:57:49;;;;;;;42.72;21.88;;;11.80;99.90;;;;;;5074276;28;20028;-71
2022/03/22 09:00:18;;;;;;;37.10;20.85;;;12.00;99.90;;;;;;5074348;28;20033;-69
2022/03/22 09:02:45;;;;;;;34.25;19.98;;;12.20;99.90;;;;;;5073895;28;20024;-72
2022/03/22 09:07:58;;;;;;;35.55;18.15;;;12.40;99.90;;;;;;5074209;28;20074;-71
2022/03/22 09:10:24;;;;;;;32.33;19.85;;;12.60;99.90;;;;;;5073813;28;20020;-69
2022/03/22 09:12:50;;;;;;;41.30;20.17;;;12.80;99.90;;;;;;5073955;28;20024;-68
2022/03/22 09:15:18;;;;;;;29.95;19.83;;;12.90;99.90;;;;;;5073876;28;20096;-72
2022/03/22 09:17:44;;;;;;;33.22;19.55;;;12.80;99.90;;;;;;5073745;28;20096;-72
2022/03/22 09:20:13;;;;;;;38.72;19.88;;;12.90;99.90;;;;;;5073785;28;20051;-69
2022/03/22 09:22:39;;;;;;;40.00;19.60;;;13.00;99.90;;;;;;5073834;28;20107;-70
2022/03/22 09:25:07;;;;;;;33.78;18.27;;;13.00;99.90;;;;;;5073630;28;20028;-71
2022/03/22 09:27:32;;;;;;;35.20;19.70;;;13.20;99.90;;;;;;5073649;28;20476;-69
2022/03/22 09:29:58;;;;;;;34.25;20.35;;;13.30;99.90;;;;;;5073690;28;20031;-72
2022/03/22 09:34:50;;;;;;;36.40;19.38;;;13.30;99.90;;;;;;5143447;23;20044;-69
2022/03/22 09:37:16;;;;;;;32.67;20.95;;;13.30;99.90;;;;;;5093992;28;20021;-69
2022/03/22 09:39:48;;;;;;;33.63;20.20;;;13.40;99.90;;;;;;5093788;28;20024;-70
2022/03/22 09:42:15;;;;;;;35.40;19.38;;;13.40;99.90;;;;;;5094205;28;20051;-70
2022/03/22 09:44:43;;;;;;;31.45;19.90;;;13.40;99.90;;;;;;5093974;28;20020;-70
2022/03/22 09:47:10;;;;;;;38.80;20.95;;;13.40;99.90;;;;;;5094028;28;20020;-70
2022/03/22 09:49:38;;;;;;;40.85;20.85;;;13.50;99.90;;;;;;5093713;28;20036;-70
2022/03/22 09:52:04;;;;;;;35.67;19.13;;;13.50;99.90;;;;;;5094223;28;20016;-71
2022/03/22 09:54:29;;;;;;;36.78;19.67;;;13.60;99.90;;;;;;5093647;28;20020;-71
2022/03/22 09:56:55;;;;;;;35.67;19.95;;;13.50;99.90;;;;;;5093923;28;20487;-70
2022/03/22 09:59:20;;;;;;;28.60;18.70;;;13.50;99.90;;;;;;5100033;28;20380;-70
2022/03/22 10:01:46;;;;;;;40.38;19.10;;;13.60;99.90;;;;;;5100533;28;20035;-70
2022/03/22 10:04:14;;;;;;;34.70;18.98;;;13.70;99.90;;;;;;5100273;28;20097;-70
2022/03/22 10:06:51;;;;;;;37.08;21.25;;;13.70;99.90;;;;;;5100624;28;20028;-70
2022/03/22 10:09:28;;;;;;;31.98;20.10;;;13.70;99.90;;;;;;5100222;28;20023;-70
2022/03/22 10:11:54;;;;;;;36.55;19.67;;;13.80;99.90;;;;;;5100354;28;20031;-70
2022/03/22 10:14:19;;;;;;;37.92;21.08;;;13.90;99.90;;;;;;5100228;28;20387;-70
2022/03/22 10:16:48;;;;;;;36.95;18.92;;;14.00;99.90;;;;;;5100327;28;20028;-70
2022/03/22 10:19:25;;;;;;;29.35;19.10;;;14.10;99.90;;;;;;5100347;28;20052;-70
2022/03/22 10:21:53;;;;;;;32.13;19.65;;;14.10;99.90;;;;;;5100467;28;20391;-70
2022/03/22 10:24:19;;;;;;;39.25;20.52;;;14.10;99.90;;;;;;5100251;28;20496;-70
2022/03/22 10:26:46;;;;;;;36.58;20.27;;;14.20;99.90;;;;;;5100346;28;20035;-70
2022/03/22 10:29:14;;;;;;;34.00;20.33;;;14.30;99.90;;;;;;5100308;28;20034;-70
2022/03/22 10:31:40;;;;;;;34.55;21.17;;;14.50;99.90;;;;;;5100396;28;20410;-70
2022/03/22 10:34:08;;;;;;;38.50;20.98;;;14.70;99.90;;;;;;5099929;28;20032;-70
2022/03/22 10:36:39;;;;;;;35.00;20.35;;;14.80;99.90;;;;;;5100073;28;20028;-70
2022/03/22 10:39:10;;;;;;;36.05;20.45;;;14.90;99.90;;;;;;5100114;28;20027;-70
2022/03/22 10:41:44;;;;;;;33.03;20.50;;;15.00;99.90;;;;;;5098668;28;20020;-70
2022/03/22 10:44:11;;;;;;;34.83;21.48;;;15.10;99.90;;;;;;5100063;28;20016;-70
2022/03/22 10:46:42;;;;;;;35.92;21.85;;;15.20;99.90;;;;;;5099927;28;20050;-70
2022/03/22 10:49:11;;;;;;;36.72;22.02;;;15.30;99.80;;;;;;5100208;28;20020;-70
2022/03/22 10:51:43;;;;;;;41.88;22.92;;;15.40;99.90;;;;;;5099933;28;20028;-70
2022/03/22 10:54:15;;;;;;;35.65;21.52;;;15.60;98.70;;;;;;5100047;28;20027;-70
2022/03/22 10:56:50;;;;;;;36.17;21.27;;;15.60;98.40;;;;;;5100099;28;20020;-70
2022/03/22 10:59:18;;;;;;;43.25;22.48;;;15.90;99.10;;;;;;5100257;28;20016;-70
2022/03/22 11:01:45;;;;;;;35.08;22.60;;;16.00;97.50;;;;;;5099783;28;20046;-70
2022/03/22 11:04:15;;;;;;;41.58;20.85;;;16.30;98.80;;;;;;5099874;28;20020;-70
2022/03/22 11:06:41;;;;;;;38.95;21.23;;;16.50;97.70;;;;;;5099744;28;20054;-70
2022/03/22 11:09:08;;;;;;;33.88;21.50;;;16.60;96.40;;;;;;5098713;28;20111;-70
2022/03/22 11:11:35;;;;;;;31.85;20.83;;;16.80;95.40;;;;;;5096601;28;20012;-70
2022/03/22 11:14:01;;;;;;;34.65;20.80;;;17.00;96.00;;;;;;5096493;28;20463;-70
2022/03/22 11:16:30;;;;;;;37.15;21.88;;;17.20;96.10;;;;;;5096566;28;20429;-70
2022/03/22 11:19:01;;;;;;;33.85;21.33;;;17.40;94.60;;;;;;5096455;28;20024;-70
2022/03/22 11:21:31;;;;;;;38.40;21.42;;;17.70;93.40;;;;;;5096816;28;20388;-70
2022/03/22 11:24:13;;;;;;;44.78;22.75;;;17.80;93.00;;;;;;5096364;28;20016;-70
2022/03/22 11:26:46;;;;;;;34.38;21.30;;;18.00;92.30;;;;;;5096632;28;20387;-70
2022/03/22 11:29:17;;;;;;;;;;;18.10;91.50;;;;;;5096689;28;20133;-70
2022/03/22 11:34:08;;;;;;;33.13;22.17;;;18.30;91.60;;;;;;5096342;28;19907;-70
2022/03/22 11:34:29;;;;;;;34.47;21.23;;;18.50;90.20;;;;;;5095863;28;20036;-70
2022/03/22 11:36:58;;;;;;;56.13;22.73;;;18.60;89.80;;;;;;5096195;28;20038;-70
2022/03/22 11:42:20;;;;;;;34.10;22.02;;;18.90;85.40;;;;;;5096345;28;20163;-70
2022/03/22 11:45:05;;;;;;;33.80;21.30;;;19.20;88.40;;;;;;5095910;28;20028;-70
2022/03/22 11:47:42;;;;;;;34.70;22.02;;;19.10;83.70;;;;;;5096074;28;20028;-70
2022/03/22 11:50:11;;;;;;;42.95;22.75;;;19.20;85.30;;;;;;5096449;28;20028;-70
2022/03/22 11:52:41;;;;;;;34.05;20.30;;;19.40;83.90;;;;;;5096183;28;20047;-70
2022/03/22 11:55:19;;;;;;;32.70;21.55;;;19.70;83.90;;;;;;5095969;28;20016;-70
2022/03/22 11:57:52;;;;;;;35.58;22.88;;;20.00;82.00;;;;;;5095821;28;20016;-70
2022/03/22 12:00:21;;;;;;;36.63;22.38;;;20.00;81.20;;;;;;5095725;28;20086;-71
2022/03/22 12:02:53;;;;;;;36.50;22.15;;;20.20;80.40;;;;;;5095552;28;20028;-71
2022/03/22 12:05:19;;;;;;;42.45;23.30;;;20.50;79.10;;;;;;5096044;28;20463;-70
2022/03/22 12:07:46;;;;;;;32.55;22.67;;;20.80;74.80;;;;;;5095802;28;20051;-70
2022/03/22 12:10:18;;;;;;;36.03;21.10;;;20.90;72.30;;;;;;5095512;28;20078;-70
2022/03/22 12:12:51;;;;;;;34.50;22.45;;;21.10;74.10;;;;;;5095450;28;20012;-70
2022/03/22 12:15:23;;;;;;;34.92;22.30;;;21.60;71.40;;;;;;5096082;28;20095;-69
2022/03/22 12:17:50;;;;;;;36.95;23.88;;;21.90;72.70;;;;;;5096255;28;20020;-70
2022/03/22 12:20:18;;;;;;;37.58;23.08;;;22.10;67.40;;;;;;5094864;28;20109;-70
2022/03/22 12:22:46;;;;;;;35.70;23.30;;;21.90;69.10;;;;;;5095113;28;20081;-70
2022/03/22 12:25:17;;;;;;;36.45;21.85;;;22.20;69.40;;;;;;5095323;28;20036;-69
2022/03/22 12:27:52;;;;;;;38.60;24.38;;;22.50;67.10;;;;;;5095287;28;20024;-71
2022/03/22 12:30:20;;;;;;;41.58;22.98;;;22.60;65.10;;;;;;5095000;28;20032;-71
2022/03/22 12:32:49;;;;;;;36.85;22.70;;;22.90;63.60;;;;;;5093566;28;20028;-70
2022/03/22 12:35:15;;;;;;;34.30;22.83;;;23.20;66.00;;;;;;5095167;28;20040;-70
2022/03/22 12:37:40;;;;;;;29.73;22.83;;;23.50;62.60;;;;;;5095095;28;20444;-71
2022/03/22 12:40:07;;;;;;;34.17;22.33;;;23.70;62.90;;;;;;5094958;28;20111;-70
2022/03/22 12:42:33;;;;;;;40.47;22.73;;;23.90;62.20;;;;;;5095392;28;20035;-70
2022/03/22 12:44:59;;;;;;;35.40;24.70;;;24.20;60.80;;;;;;5095063;28;20099;-70
2022/03/22 12:47:24;;;;;;;34.47;23.83;;;24.30;59.30;;;;;;5094816;28;20028;-71
2022/03/22 12:49:50;;;;;;;37.65;24.48;;;24.20;59.00;;;;;;5094628;28;20028;-71
2022/03/22 12:52:16;;;;;;;41.05;25.92;;;23.90;57.40;;;;;;5094696;28;20016;-70
2022/03/22 12:54:43;;;;;;;43.75;25.58;;;23.80;57.10;;;;;;5094588;28;20028;-70
2022/03/22 12:57:11;;;;;;;39.38;23.77;;;23.70;56.60;;;;;;5094650;28;20021;-70
2022/03/22 12:59:38;;;;;;;48.55;24.77;;;23.80;56.40;;;;;;5094603;28;20032;-70
2022/03/22 13:02:07;;;;;;;41.70;24.23;;;23.50;55.20;;;;;;5094740;28;20028;-71
2022/03/22 13:04:47;;;;;;;42.03;25.58;;;23.50;56.70;;;;;;5094424;28;20029;-70
2022/03/22 13:07:30;;;;;;;40.80;23.70;;;23.20;56.70;;;;;;5094727;28;20398;-69